Atlantic Challenge — EI5772 — position and weather

sailwx.info

Track history (hours):
 
Tides and Currents Weather Stations Pressure Air Temp Water Temp Dewpoint Dewpoint Depression Visibility Wind Speed Wind Dir Waves Ship Positions

Atlantic Challenge

Last reported at 2018-Feb-20 06:00 UTC. Time now 2018-Feb-20 06:08 UTC.
Position N 54°34' W 008°44'.

Length 59 m; draft 7 m.

MMSI: 250183000.

Date/timePositionNaut miles runAvg speedWind from/ knotsBaromVisibWave heightAir tempDewpointWater temp
2018-Feb-20 06:00N 54°34' W 008°44'4 8.8
2018-Feb-20 05:31N 54°33' W 008°51'5 8.7
2018-Feb-20 04:58N 54°32' W 008°59'26 8.1
2018-Feb-20 01:44N 54°26' W 009°43'4 8.0
2018-Feb-20 01:17N 54°25' W 009°49'3 7.8
2018-Feb-20 00:57N 54°24' W 009°53'4 7.9
2018-Feb-20 00:30N 54°22' W 009°58'5 8.3
2018-Feb-19 23:54N 54°20' W 010°05'4 9.5
2018-Feb-19 23:30N 54°17' W 010°10'5 9.9
2018-Feb-19 23:00N 54°13' W 010°16'610.4
2018-Feb-19 22:25N 54°08' W 010°22'410.4
2018-Feb-19 22:00N 54°05' W 010°26'610.4
2018-Feb-19 21:24N 53°59' W 010°32'410.3
2018-Feb-19 20:59N 53°55' W 010°35'510.2
2018-Feb-19 20:28N 53°51' W 010°39'510.2
2018-Feb-19 19:59N 53°47' W 010°43'4 0.1
2018-Feb-17 23:42N 53°50' W 010°39'211.3
2018-Feb-17 23:30N 53°48' W 010°41'3 5.1
2018-Feb-17 22:59N 53°50' W 010°43'2 3.6
2018-Feb-17 22:29N 53°51' W 010°46'1 2.8
2018-Feb-17 22:00N 53°50' W 010°47'2 4.7
2018-Feb-17 21:30N 53°48' W 010°48'3 5.2
2018-Feb-17 20:59N 53°45' W 010°46'3 5.4
2018-Feb-17 20:30N 53°43' W 010°46'0 0.5
2018-Feb-17 19:42N 53°43' W 010°46'1 4.3
2018-Feb-17 19:28N 53°44' W 010°46'2 4.3
2018-Feb-17 19:00N 53°46' W 010°47'2 4.9
2018-Feb-17 18:31N 53°48' W 010°46'4 8.0
2018-Feb-17 18:00N 53°52' W 010°44'611.3
2018-Feb-17 17:30N 53°47' W 010°46'4 7.4
2018-Feb-17 16:58N 53°43' W 010°45'2 2.6
2018-Feb-17 16:15N 53°45' W 010°46'1 5.0
2018-Feb-17 15:59N 53°46' W 010°46'3 5.1
2018-Feb-17 15:28N 53°49' W 010°46'4 8.8
2018-Feb-17 14:59N 53°44' W 010°46'4 8.9
2018-Feb-17 14:30N 53°40' W 010°44'15 5.3
2018-Feb-17 11:35N 53°38' W 011°10'0 1.2
2018-Feb-17 11:29N 53°38' W 011°10'4 3.5
2018-Feb-17 10:12N 53°34' W 011°15'511.9
2018-Feb-17 09:48N 53°38' W 011°12'11 9.6
2018-Feb-17 08:42N 53°46' W 010°60'2 5.9
2018-Feb-17 08:20N 53°46' W 011°03'511.1
2018-Feb-17 07:55N 53°41' W 011°06'5 9.2
2018-Feb-17 07:22N 53°37' W 011°11'5 8.9
2018-Feb-17 06:49N 53°34' W 011°18'1 2.6
2018-Feb-17 06:30N 53°34' W 011°19'1 1.7
2018-Feb-17 05:47N 53°34' W 011°17'1 1.7
2018-Feb-17 05:26N 53°34' W 011°16'1 1.6
2018-Feb-17 04:47N 53°35' W 011°14'1 1.5
2018-Feb-17 04:08N 53°35' W 011°13'0 1.4
2018-Feb-17 03:49N 53°36' W 011°12'8 2.3
2018-Feb-17 00:08N 53°43' W 011°04'5 8.9
2018-Feb-16 23:37N 53°47' W 011°03'1 8.8
2018-Feb-16 23:29N 53°48' W 011°03'9 7.6
2018-Feb-16 22:14N 53°58' W 010°58'11 7.5
2018-Feb-16 20:42N 54°08' W 010°51'2 8.1
2018-Feb-16 20:29N 54°10' W 010°51'3 6.8
2018-Feb-16 20:00N 54°13' W 010°48'11 6.9
2018-Feb-16 18:27N 54°17' W 010°31'6 9.5
2018-Feb-16 17:51N 54°18' W 010°22'4 9.5
2018-Feb-16 17:29N 54°18' W 010°16'10 9.7
2018-Feb-16 16:25N 54°20' W 009°58'4 9.8
2018-Feb-16 16:00N 54°21' W 009°51'6 9.8
2018-Feb-16 15:24N 54°22' W 009°42'8 9.9
2018-Feb-16 14:34N 54°22' W 009°27'12 9.9
2018-Feb-16 13:21N 54°24' W 009°07'410.1
2018-Feb-16 13:00N 54°25' W 009°01'510.1
2018-Feb-16 12:30N 54°28' W 008°54'510.1
2018-Feb-16 12:00N 54°30' W 008°46'4 8.6
2018-Feb-16 11:30N 54°32' W 008°40'4 8.1
2018-Feb-16 11:00N 54°34' W 008°34'4 7.8
2018-Feb-16 10:28N 54°36' W 008°28'2 3.4
2018-Feb-16 09:57N 54°38' W 008°26'0 0.0
2018-Feb-16 09:28N 54°38' W 008°26'0 0.0
2018-Feb-16 08:34N 54°38' W 008°26'0 0.0
2018-Feb-16 08:27N 54°38' W 008°26'0 0.0
2018-Feb-16 07:58N 54°38' W 008°26'0 0.0
2018-Feb-16 07:29N 54°38' W 008°26'0 0.0
2018-Feb-16 07:00N 54°38' W 008°26'0 0.0
2018-Feb-16 06:28N 54°38' W 008°26'0 0.0
2018-Feb-16 05:59N 54°38' W 008°26'0 0.0
2018-Feb-16 05:28N 54°38' W 008°26'0 0.0
2018-Feb-16 04:54N 54°38' W 008°26'0 0.0
2018-Feb-16 04:28N 54°38' W 008°26'0 0.0
2018-Feb-16 03:59N 54°38' W 008°26'0 0.0
2018-Feb-16 03:30N 54°38' W 008°26'0 0.0
2018-Feb-16 02:58N 54°38' W 008°26'0 0.0
2018-Feb-16 02:29N 54°38' W 008°26'0 0.0
2018-Feb-16 02:00N 54°38' W 008°26'0 0.0
2018-Feb-16 01:28N 54°38' W 008°26'0 0.0
2018-Feb-16 00:59N 54°38' W 008°26'0 0.0
2018-Feb-16 00:30N 54°38' W 008°26'0 0.0
2018-Feb-15 23:58N 54°38' W 008°26'0 0.0
2018-Feb-15 23:30N 54°38' W 008°26'0 0.0
2018-Feb-15 23:01N 54°38' W 008°26'0 0.0
2018-Feb-15 22:30N 54°38' W 008°26'0 0.0
2018-Feb-15 21:58N 54°38' W 008°26'0 0.0
2018-Feb-15 21:29N 54°38' W 008°26'0 0.0
2018-Feb-15 21:00N 54°38' W 008°26'0 0.0
2018-Feb-15 20:27N 54°38' W 008°26'0 0.0
2018-Feb-15 19:58N 54°38' W 008°26'0 0.0
2018-Feb-15 19:29N 54°38' W 008°26'0 0.0
2018-Feb-15 19:00N 54°38' W 008°26'0 0.0
2018-Feb-15 18:28N 54°38' W 008°26'0 0.0
2018-Feb-15 17:59N 54°38' W 008°26'0 0.0
2018-Feb-15 17:29N 54°38' W 008°26'0 0.0
2018-Feb-15 17:00N 54°38' W 008°26'0 0.0
2018-Feb-15 16:28N 54°38' W 008°26'0 0.0
2018-Feb-15 16:00N 54°38' W 008°26'0 0.0
2018-Feb-15 15:30N 54°38' W 008°26'0 0.0
2018-Feb-15 14:57N 54°38' W 008°26'0 0.0
2018-Feb-15 14:28N 54°38' W 008°26'0 0.0
2018-Feb-15 14:00N 54°38' W 008°26'0 0.0
2018-Feb-15 13:28N 54°38' W 008°26'0 0.0
2018-Feb-15 12:59N 54°38' W 008°26'0 0.0
2018-Feb-15 12:28N 54°38' W 008°26'0 0.0
2018-Feb-15 11:59N 54°38' W 008°26'0 0.0
2018-Feb-15 11:30N 54°38' W 008°26'0 0.0
2018-Feb-15 10:56N 54°38' W 008°26'0 0.0
2018-Feb-15 10:30N 54°38' W 008°26'0 0.0
2018-Feb-15 09:58N 54°38' W 008°26'0 0.0
2018-Feb-15 09:29N 54°38' W 008°26'0 0.0
2018-Feb-15 09:00N 54°38' W 008°26'0 0.0
2018-Feb-15 08:28N 54°38' W 008°26'0 0.0
2018-Feb-15 07:58N 54°38' W 008°26'0 0.0
2018-Feb-15 07:28N 54°38' W 008°26'0 0.0
2018-Feb-15 06:58N 54°38' W 008°26'0 0.0
2018-Feb-15 06:25N 54°38' W 008°26'0 0.0
2018-Feb-15 05:59N 54°38' W 008°26'0 0.0
2018-Feb-15 05:30N 54°38' W 008°26'0 0.0
2018-Feb-15 04:57N 54°38' W 008°26'0 0.0
2018-Feb-15 04:29N 54°38' W 008°26'0 0.0
2018-Feb-15 04:00N 54°38' W 008°26'0 0.0
2018-Feb-15 03:28N 54°38' W 008°26'0 0.0
2018-Feb-15 02:59N 54°38' W 008°26'0 0.0
2018-Feb-15 02:28N 54°38' W 008°26'0 0.0
2018-Feb-15 02:00N 54°38' W 008°26'0 0.0
2018-Feb-15 01:28N 54°38' W 008°26'0 0.0
2018-Feb-15 00:59N 54°38' W 008°26'0 0.0
2018-Feb-15 00:30N 54°38' W 008°26'0 0.0
2018-Feb-14 23:58N 54°38' W 008°26'0 0.0
2018-Feb-14 23:28N 54°38' W 008°26'0 0.0
2018-Feb-14 23:00N 54°38' W 008°26'0 0.0
2018-Feb-14 22:28N 54°38' W 008°26'0 0.0
2018-Feb-14 21:56N 54°38' W 008°26'0 0.0
2018-Feb-14 21:30N 54°38' W 008°26'0 0.0
2018-Feb-14 21:00N 54°38' W 008°26'0 0.0
2018-Feb-14 20:27N 54°38' W 008°26'0 0.0
2018-Feb-14 19:59N 54°38' W 008°26'0 0.0
2018-Feb-14 19:29N 54°38' W 008°26'0 0.0
2018-Feb-14 18:57N 54°38' W 008°26'0 0.0
2018-Feb-14 18:28N 54°38' W 008°26'0 0.0
2018-Feb-14 17:59N 54°38' W 008°26'0 0.0
2018-Feb-14 17:30N 54°38' W 008°26'0 0.0
2018-Feb-14 16:59N 54°38' W 008°26'0 0.0
2018-Feb-14 16:28N 54°38' W 008°26'0 0.0
2018-Feb-14 15:59N 54°38' W 008°26'0 0.0
2018-Feb-14 15:30N 54°38' W 008°26'0 0.0
2018-Feb-14 14:58N 54°38' W 008°26'0 0.0
2018-Feb-14 14:29N 54°38' W 008°26'0 0.0
2018-Feb-14 13:59N 54°38' W 008°26'0 0.0
2018-Feb-14 13:30N 54°38' W 008°26'0 0.0
2018-Feb-14 12:58N 54°38' W 008°26'0 0.0
2018-Feb-14 12:29N 54°38' W 008°26'0 0.0
2018-Feb-14 12:00N 54°38' W 008°26'0 0.0
2018-Feb-14 11:28N 54°38' W 008°26'0 0.0
2018-Feb-14 10:59N 54°38' W 008°26'0 0.0
2018-Feb-14 10:30N 54°38' W 008°26'0 0.0
2018-Feb-14 09:58N 54°38' W 008°26'0 0.0
2018-Feb-14 09:30N 54°38' W 008°26'0 0.0
2018-Feb-14 08:57N 54°38' W 008°26'0 0.0
2018-Feb-14 08:30N 54°38' W 008°26'0 0.0
2018-Feb-14 08:00N 54°38' W 008°26'0 0.0
2018-Feb-14 07:28N 54°38' W 008°26'0 0.0
2018-Feb-14 06:59N 54°38' W 008°26'0 0.0
2018-Feb-14 06:30N 54°38' W 008°26'0 0.0
2018-Feb-14 05:58N 54°38' W 008°26'0 0.0
2018-Feb-14 05:29N 54°38' W 008°26'0 0.0
2018-Feb-14 04:57N 54°38' W 008°26'0 0.0
2018-Feb-14 04:28N 54°38' W 008°26'0 0.0
2018-Feb-14 04:00N 54°38' W 008°26'0 0.0
2018-Feb-14 03:28N 54°38' W 008°26'0 0.0
2018-Feb-14 02:59N 54°38' W 008°26'0 0.0
2018-Feb-14 02:30N 54°38' W 008°26'0 0.0
2018-Feb-14 01:58N 54°38' W 008°26'0 0.0
2018-Feb-14 01:28N 54°38' W 008°26'0 0.0
2018-Feb-14 00:59N 54°38' W 008°26'0 0.0
2018-Feb-14 00:30N 54°38' W 008°26'0 0.0
2018-Feb-13 23:58N 54°38' W 008°26'0 0.0
2018-Feb-13 23:30N 54°38' W 008°26'0 0.0
2018-Feb-13 22:58N 54°38' W 008°26'0 0.0
2018-Feb-13 22:30N 54°38' W 008°26'0 0.0
2018-Feb-13 21:58N 54°38' W 008°26'0 0.0
2018-Feb-13 21:29N 54°38' W 008°26'0 0.0
2018-Feb-13 21:00N 54°38' W 008°26'0 0.0
2018-Feb-13 20:29N 54°38' W 008°26'0 0.0
2018-Feb-13 20:00N 54°38' W 008°26'0 0.0
2018-Feb-13 19:28N 54°38' W 008°26'0 0.0
2018-Feb-13 18:55N 54°38' W 008°26'0 0.0
2018-Feb-13 18:30N 54°38' W 008°26'0 0.0
2018-Feb-13 17:58N 54°38' W 008°26'0 0.0
2018-Feb-13 17:29N 54°38' W 008°26'0 0.0
2018-Feb-13 17:00N 54°38' W 008°26'0 0.0
2018-Feb-13 16:28N 54°38' W 008°26'0 0.0
2018-Feb-13 15:59N 54°38' W 008°26'0 0.0
2018-Feb-13 15:28N 54°38' W 008°26'0 0.0
2018-Feb-13 14:59N 54°38' W 008°26'0 0.0
2018-Feb-13 14:30N 54°38' W 008°26'0 0.0
2018-Feb-13 13:58N 54°38' W 008°26'0 0.0
2018-Feb-13 13:30N 54°38' W 008°26'0 0.0
2018-Feb-13 12:58N 54°38' W 008°26'0 0.0
2018-Feb-13 12:29N 54°38' W 008°26'0 0.0
2018-Feb-13 11:57N 54°38' W 008°26'0 0.0
2018-Feb-13 11:28N 54°38' W 008°26'0 0.0
2018-Feb-13 10:58N 54°38' W 008°26'0 0.0
2018-Feb-13 10:27N 54°38' W 008°26'0 0.3
2018-Feb-13 09:59N 54°38' W 008°26'0 0.0
2018-Feb-13 09:30N 54°38' W 008°26'0 0.0
2018-Feb-13 08:56N 54°38' W 008°26'0 0.1
2018-Feb-13 08:29N 54°38' W 008°26'0 0.2
2018-Feb-13 07:59N 54°38' W 008°26'0 0.0
2018-Feb-13 07:30N 54°38' W 008°26'0 0.0
2018-Feb-13 06:57N 54°38' W 008°26'0 0.0
2018-Feb-13 06:21N 54°38' W 008°26'0 0.0
2018-Feb-13 05:58N 54°38' W 008°26'0 0.0
2018-Feb-13 05:26N 54°38' W 008°26'0 0.0
2018-Feb-13 04:57N 54°38' W 008°26'0 0.0
2018-Feb-13 04:30N 54°38' W 008°26'0 0.0
2018-Feb-13 03:51N 54°38' W 008°26'0 0.0
2018-Feb-13 03:29N 54°38' W 008°26'0 0.0
2018-Feb-13 03:00N 54°38' W 008°26'0 0.0
2018-Feb-13 02:30N 54°38' W 008°26'0 0.0
2018-Feb-13 01:59N 54°38' W 008°26'0 0.0
2018-Feb-13 01:30N 54°38' W 008°26'0 0.0
2018-Feb-13 00:55N 54°38' W 008°26'0 0.0
2018-Feb-13 00:30N 54°38' W 008°26'0 0.0
2018-Feb-12 23:56N 54°38' W 008°26'0 0.0
2018-Feb-12 23:27N 54°38' W 008°26'0 0.0
2018-Feb-12 22:59N 54°38' W 008°26'0 0.0
2018-Feb-12 22:30N 54°38' W 008°26'0 0.0
2018-Feb-12 21:58N 54°38' W 008°26'0 0.0
2018-Feb-12 21:29N 54°38' W 008°26'0 0.0
2018-Feb-12 21:00N 54°38' W 008°26'0 0.0
2018-Feb-12 20:30N 54°38' W 008°26'0 0.0
2018-Feb-12 20:00N 54°38' W 008°26'0 0.0
2018-Feb-12 19:28N 54°38' W 008°26'0 0.0
2018-Feb-12 19:00N 54°38' W 008°26'0 0.0
2018-Feb-12 18:29N 54°38' W 008°26'0 0.0
2018-Feb-12 18:00N 54°38' W 008°26'0 0.0
2018-Feb-12 17:30N 54°38' W 008°26'0 0.0
2018-Feb-12 16:57N 54°38' W 008°26'0 0.0
2018-Feb-12 16:30N 54°38' W 008°26'0 0.0
2018-Feb-12 15:57N 54°38' W 008°26'0 0.0
2018-Feb-12 15:17N 54°38' W 008°26'0 0.0
2018-Feb-12 14:58N 54°38' W 008°26'0 0.0
2018-Feb-12 14:29N 54°38' W 008°26'0 0.0
2018-Feb-12 14:00N 54°38' W 008°26'0 0.0
2018-Feb-12 13:26N 54°38' W 008°26'0 0.0
2018-Feb-12 12:59N 54°38' W 008°26'0 0.0
2018-Feb-12 12:30N 54°38' W 008°26'0 0.0
2018-Feb-12 11:56N 54°38' W 008°26'0 0.0
2018-Feb-12 11:28N 54°38' W 008°26'0 0.0
2018-Feb-12 10:59N 54°38' W 008°26'0 0.0
2018-Feb-12 10:30N 54°38' W 008°26'0 0.0
2018-Feb-12 09:58N 54°38' W 008°26'0 0.0
2018-Feb-12 09:27N 54°38' W 008°26'0 0.0
2018-Feb-12 08:59N 54°38' W 008°26'0 0.0
2018-Feb-12 08:30N 54°38' W 008°26'0 0.0
2018-Feb-12 07:57N 54°38' W 008°26'0 0.0
2018-Feb-12 07:25N 54°38' W 008°26'0 0.0
2018-Feb-12 06:56N 54°38' W 008°26'0 0.0
2018-Feb-12 06:26N 54°38' W 008°26'0 0.0
2018-Feb-12 05:58N 54°38' W 008°26'0 0.0
2018-Feb-12 05:29N 54°38' W 008°26'0 0.0
2018-Feb-12 04:58N 54°38' W 008°26'0 0.0
2018-Feb-12 04:29N 54°38' W 008°26'0 0.0
2018-Feb-12 03:58N 54°38' W 008°26'0 0.0
2018-Feb-12 03:28N 54°38' W 008°26'0 0.0
2018-Feb-12 02:59N 54°38' W 008°26'0 0.0
2018-Feb-12 02:27N 54°38' W 008°26'0 0.0
2018-Feb-12 01:59N 54°38' W 008°26'0 0.0
2018-Feb-12 01:28N 54°38' W 008°26'0 0.0
2018-Feb-12 00:56N 54°38' W 008°26'0 0.0
2018-Feb-12 00:28N 54°38' W 008°26'0 0.0
2018-Feb-11 23:59N 54°38' W 008°26'0 0.0
2018-Feb-11 23:28N 54°38' W 008°26'0 0.0
2018-Feb-11 22:59N 54°38' W 008°26'0 0.0
2018-Feb-11 22:30N 54°38' W 008°26'0 0.0
2018-Feb-11 21:58N 54°38' W 008°26'0 0.0
2018-Feb-11 21:29N 54°38' W 008°26'0 0.0
2018-Feb-11 21:00N 54°38' W 008°26'0 0.0
2018-Feb-11 20:30N 54°38' W 008°26'0 0.0
2018-Feb-11 20:00N 54°38' W 008°26'0 0.0
2018-Feb-11 17:51N 54°38' W 008°26'0 0.0
2018-Feb-11 17:26N 54°38' W 008°26'0 0.0
2018-Feb-11 16:59N 54°38' W 008°26'0 0.0
2018-Feb-11 16:28N 54°38' W 008°26'0 0.0
2018-Feb-11 15:59N 54°38' W 008°26'0 0.0
2018-Feb-11 15:31N 54°38' W 008°26'0 0.0
2018-Feb-11 14:57N 54°38' W 008°26'0 0.0
2018-Feb-11 14:28N 54°38' W 008°26'0 0.0
2018-Feb-11 13:59N 54°38' W 008°26'0 0.0
2018-Feb-11 13:26N 54°38' W 008°26'0 0.0
2018-Feb-11 12:59N 54°38' W 008°26'0 0.0
2018-Feb-11 12:30N 54°38' W 008°26'0 0.0
2018-Feb-11 12:00N 54°38' W 008°26'0 0.0
2018-Feb-11 11:30N 54°38' W 008°26'0 0.0
2018-Feb-11 10:58N 54°38' W 008°26'0 0.0
2018-Feb-11 10:29N 54°38' W 008°26'0 0.0
2018-Feb-11 09:56N 54°38' W 008°26'0 0.0
2018-Feb-11 09:27N 54°38' W 008°26'0 0.0
2018-Feb-11 08:58N 54°38' W 008°26'0 0.0
2018-Feb-11 08:29N 54°38' W 008°26'0 0.0
2018-Feb-11 07:57N 54°38' W 008°26'0 0.0
2018-Feb-11 07:29N 54°38' W 008°26'0 0.0
2018-Feb-11 07:00N 54°38' W 008°26'0 0.0
2018-Feb-11 06:26N 54°38' W 008°26'0 0.0
2018-Feb-11 05:58N 54°38' W 008°26'0 0.0
2018-Feb-11 05:29N 54°38' W 008°26'0 0.0
2018-Feb-11 04:59N 54°38' W 008°26'0 0.0
2018-Feb-11 04:30N 54°38' W 008°26'0 0.0
2018-Feb-11 04:00N 54°38' W 008°26'0 0.0
2018-Feb-11 03:28N 54°38' W 008°26'0 0.0
2018-Feb-11 03:00N 54°38' W 008°26'0 0.0
2018-Feb-11 02:30N 54°38' W 008°26'0 0.0
2018-Feb-11 01:55N 54°38' W 008°26'0 0.0
2018-Feb-11 01:29N 54°38' W 008°26'0 0.0
2018-Feb-11 01:00N 54°38' W 008°26'0 0.0
2018-Feb-11 00:30N 54°38' W 008°26'0 0.0
2018-Feb-10 23:56N 54°38' W 008°26'0 0.0
2018-Feb-10 23:27N 54°38' W 008°26'0 0.0
2018-Feb-10 22:59N 54°38' W 008°26'0 0.0
2018-Feb-10 22:30N 54°38' W 008°26'0 0.0
2018-Feb-10 21:59N 54°38' W 008°26'0 0.0
2018-Feb-10 21:30N 54°38' W 008°26'0 0.0
2018-Feb-10 20:57N 54°38' W 008°26'0 0.0
2018-Feb-10 20:30N 54°38' W 008°26'0 0.0
2018-Feb-10 20:00N 54°38' W 008°26'0 0.0
2018-Feb-10 19:28N 54°38' W 008°26'0 0.0
2018-Feb-10 18:59N 54°38' W 008°26'0 0.0
2018-Feb-10 18:29N 54°38' W 008°26'0 0.0
2018-Feb-10 17:58N 54°38' W 008°26'0 0.0
2018-Feb-10 17:29N 54°38' W 008°26'0 0.0
2018-Feb-10 17:00N 54°38' W 008°26'0 0.0
2018-Feb-10 16:29N 54°38' W 008°26'0 0.0
2018-Feb-10 15:59N 54°38' W 008°26'0 0.0
2018-Feb-10 15:30N 54°38' W 008°26'0 0.0
2018-Feb-10 14:55N 54°38' W 008°26'0 0.0
2018-Feb-10 14:29N 54°38' W 008°26'0 0.0
2018-Feb-10 14:00N 54°38' W 008°26'0 0.0
2018-Feb-10 13:28N 54°38' W 008°26'0 0.0
2018-Feb-10 13:00N 54°38' W 008°26'0 0.0
2018-Feb-10 12:25N 54°38' W 008°26'0 0.0
2018-Feb-10 11:58N 54°38' W 008°26'0 0.0
2018-Feb-10 11:30N 54°38' W 008°26'0 0.0
2018-Feb-10 10:59N 54°38' W 008°26'0 0.0
2018-Feb-10 10:29N 54°38' W 008°26'0 0.0
2018-Feb-10 10:00N 54°38' W 008°26'0 0.0
2018-Feb-10 09:26N 54°38' W 008°26'0 0.0
2018-Feb-10 08:57N 54°38' W 008°26'0 0.0
2018-Feb-10 08:27N 54°38' W 008°26'0 0.0
2018-Feb-10 07:59N 54°38' W 008°26'0 0.0
2018-Feb-10 07:27N 54°38' W 008°26'0 0.0
2018-Feb-10 06:56N 54°38' W 008°26'0 0.0
2018-Feb-10 06:27N 54°38' W 008°26'  
Track history (hours):
 
Tides and Currents Weather Stations Pressure Air Temp Water Temp Dewpoint Dewpoint Depression Visibility Wind Speed Wind Dir Waves Ship Positions

Atlantic Challenge

Last reported at 2018-Feb-20 06:00 UTC. Time now 2018-Feb-20 06:08 UTC.
Position N 54°34' W 008°44'.

Length 59 m; draft 7 m.

MMSI: 250183000.

Date/timePositionNaut miles runAvg speedWind from/ knotsBaromVisibWave heightAir tempDewpointWater temp
2018-Feb-20 06:00N 54°34' W 008°44'4 8.8
2018-Feb-20 05:31N 54°33' W 008°51'5 8.7
2018-Feb-20 04:58N 54°32' W 008°59'26 8.1
2018-Feb-20 01:44N 54°26' W 009°43'4 8.0
2018-Feb-20 01:17N 54°25' W 009°49'3 7.8
2018-Feb-20 00:57N 54°24' W 009°53'4 7.9
2018-Feb-20 00:30N 54°22' W 009°58'5 8.3
2018-Feb-19 23:54N 54°20' W 010°05'4 9.5
2018-Feb-19 23:30N 54°17' W 010°10'5 9.9
2018-Feb-19 23:00N 54°13' W 010°16'610.4
2018-Feb-19 22:25N 54°08' W 010°22'410.4
2018-Feb-19 22:00N 54°05' W 010°26'610.4
2018-Feb-19 21:24N 53°59' W 010°32'410.3
2018-Feb-19 20:59N 53°55' W 010°35'510.2
2018-Feb-19 20:28N 53°51' W 010°39'510.2
2018-Feb-19 19:59N 53°47' W 010°43'4 0.1
2018-Feb-17 23:42N 53°50' W 010°39'211.3
2018-Feb-17 23:30N 53°48' W 010°41'3 5.1
2018-Feb-17 22:59N 53°50' W 010°43'2 3.6
2018-Feb-17 22:29N 53°51' W 010°46'1 2.8
2018-Feb-17 22:00N 53°50' W 010°47'2 4.7
2018-Feb-17 21:30N 53°48' W 010°48'3 5.2
2018-Feb-17 20:59N 53°45' W 010°46'3 5.4
2018-Feb-17 20:30N 53°43' W 010°46'0 0.5
2018-Feb-17 19:42N 53°43' W 010°46'1 4.3
2018-Feb-17 19:28N 53°44' W 010°46'2 4.3
2018-Feb-17 19:00N 53°46' W 010°47'2 4.9
2018-Feb-17 18:31N 53°48' W 010°46'4 8.0
2018-Feb-17 18:00N 53°52' W 010°44'611.3
2018-Feb-17 17:30N 53°47' W 010°46'4 7.4
2018-Feb-17 16:58N 53°43' W 010°45'2 2.6
2018-Feb-17 16:15N 53°45' W 010°46'1 5.0
2018-Feb-17 15:59N 53°46' W 010°46'3 5.1
2018-Feb-17 15:28N 53°49' W 010°46'4 8.8
2018-Feb-17 14:59N 53°44' W 010°46'4 8.9
2018-Feb-17 14:30N 53°40' W 010°44'15 5.3
2018-Feb-17 11:35N 53°38' W 011°10'0 1.2
2018-Feb-17 11:29N 53°38' W 011°10'4 3.5
2018-Feb-17 10:12N 53°34' W 011°15'511.9
2018-Feb-17 09:48N 53°38' W 011°12'11 9.6
2018-Feb-17 08:42N 53°46' W 010°60'2 5.9
2018-Feb-17 08:20N 53°46' W 011°03'511.1
2018-Feb-17 07:55N 53°41' W 011°06'5 9.2
2018-Feb-17 07:22N 53°37' W 011°11'5 8.9
2018-Feb-17 06:49N 53°34' W 011°18'1 2.6
2018-Feb-17 06:30N 53°34' W 011°19'1 1.7
2018-Feb-17 05:47N 53°34' W 011°17'1 1.7
2018-Feb-17 05:26N 53°34' W 011°16'1 1.6
2018-Feb-17 04:47N 53°35' W 011°14'1 1.5
2018-Feb-17 04:08N 53°35' W 011°13'0 1.4
2018-Feb-17 03:49N 53°36' W 011°12'8 2.3
2018-Feb-17 00:08N 53°43' W 011°04'5 8.9
2018-Feb-16 23:37N 53°47' W 011°03'1 8.8
2018-Feb-16 23:29N 53°48' W 011°03'9 7.6
2018-Feb-16 22:14N 53°58' W 010°58'11 7.5
2018-Feb-16 20:42N 54°08' W 010°51'2 8.1
2018-Feb-16 20:29N 54°10' W 010°51'3 6.8
2018-Feb-16 20:00N 54°13' W 010°48'11 6.9
2018-Feb-16 18:27N 54°17' W 010°31'6 9.5
2018-Feb-16 17:51N 54°18' W 010°22'4 9.5
2018-Feb-16 17:29N 54°18' W 010°16'10 9.7
2018-Feb-16 16:25N 54°20' W 009°58'4 9.8
2018-Feb-16 16:00N 54°21' W 009°51'6 9.8
2018-Feb-16 15:24N 54°22' W 009°42'8 9.9
2018-Feb-16 14:34N 54°22' W 009°27'12 9.9
2018-Feb-16 13:21N 54°24' W 009°07'410.1
2018-Feb-16 13:00N 54°25' W 009°01'510.1
2018-Feb-16 12:30N 54°28' W 008°54'510.1
2018-Feb-16 12:00N 54°30' W 008°46'4 8.6
2018-Feb-16 11:30N 54°32' W 008°40'4 8.1
2018-Feb-16 11:00N 54°34' W 008°34'4 7.8
2018-Feb-16 10:28N 54°36' W 008°28'2 3.4
2018-Feb-16 09:57N 54°38' W 008°26'0 0.0
2018-Feb-16 09:28N 54°38' W 008°26'0 0.0
2018-Feb-16 08:34N 54°38' W 008°26'0 0.0
2018-Feb-16 08:27N 54°38' W 008°26'0 0.0
2018-Feb-16 07:58N 54°38' W 008°26'0 0.0
2018-Feb-16 07:29N 54°38' W 008°26'0 0.0
2018-Feb-16 07:00N 54°38' W 008°26'0 0.0
2018-Feb-16 06:28N 54°38' W 008°26'0 0.0
2018-Feb-16 05:59N 54°38' W 008°26'0 0.0
2018-Feb-16 05:28N 54°38' W 008°26'0 0.0
2018-Feb-16 04:54N 54°38' W 008°26'0 0.0
2018-Feb-16 04:28N 54°38' W 008°26'0 0.0
2018-Feb-16 03:59N 54°38' W 008°26'0 0.0
2018-Feb-16 03:30N 54°38' W 008°26'0 0.0
2018-Feb-16 02:58N 54°38' W 008°26'0 0.0
2018-Feb-16 02:29N 54°38' W 008°26'0 0.0
2018-Feb-16 02:00N 54°38' W 008°26'0 0.0
2018-Feb-16 01:28N 54°38' W 008°26'0 0.0
2018-Feb-16 00:59N 54°38' W 008°26'0 0.0
2018-Feb-16 00:30N 54°38' W 008°26'0 0.0
2018-Feb-15 23:58N 54°38' W 008°26'0 0.0
2018-Feb-15 23:30N 54°38' W 008°26'0 0.0
2018-Feb-15 23:01N 54°38' W 008°26'0 0.0
2018-Feb-15 22:30N 54°38' W 008°26'0 0.0
2018-Feb-15 21:58N 54°38' W 008°26'0 0.0
2018-Feb-15 21:29N 54°38' W 008°26'0 0.0
2018-Feb-15 21:00N 54°38' W 008°26'0 0.0
2018-Feb-15 20:27N 54°38' W 008°26'0 0.0
2018-Feb-15 19:58N 54°38' W 008°26'0 0.0
2018-Feb-15 19:29N 54°38' W 008°26'0 0.0
2018-Feb-15 19:00N 54°38' W 008°26'0 0.0
2018-Feb-15 18:28N 54°38' W 008°26'0 0.0
2018-Feb-15 17:59N 54°38' W 008°26'0 0.0
2018-Feb-15 17:29N 54°38' W 008°26'0 0.0
2018-Feb-15 17:00N 54°38' W 008°26'0 0.0
2018-Feb-15 16:28N 54°38' W 008°26'0 0.0
2018-Feb-15 16:00N 54°38' W 008°26'0 0.0
2018-Feb-15 15:30N 54°38' W 008°26'0 0.0
2018-Feb-15 14:57N 54°38' W 008°26'0 0.0
2018-Feb-15 14:28N 54°38' W 008°26'0 0.0
2018-Feb-15 14:00N 54°38' W 008°26'0 0.0
2018-Feb-15 13:28N 54°38' W 008°26'0 0.0
2018-Feb-15 12:59N 54°38' W 008°26'0 0.0
2018-Feb-15 12:28N 54°38' W 008°26'0 0.0
2018-Feb-15 11:59N 54°38' W 008°26'0 0.0
2018-Feb-15 11:30N 54°38' W 008°26'0 0.0
2018-Feb-15 10:56N 54°38' W 008°26'0 0.0
2018-Feb-15 10:30N 54°38' W 008°26'0 0.0
2018-Feb-15 09:58N 54°38' W 008°26'0 0.0
2018-Feb-15 09:29N 54°38' W 008°26'0 0.0
2018-Feb-15 09:00N 54°38' W 008°26'0 0.0
2018-Feb-15 08:28N 54°38' W 008°26'0 0.0
2018-Feb-15 07:58N 54°38' W 008°26'0 0.0
2018-Feb-15 07:28N 54°38' W 008°26'0 0.0
2018-Feb-15 06:58N 54°38' W 008°26'0 0.0
2018-Feb-15 06:25N 54°38' W 008°26'0 0.0
2018-Feb-15 05:59N 54°38' W 008°26'0 0.0
2018-Feb-15 05:30N 54°38' W 008°26'0 0.0
2018-Feb-15 04:57N 54°38' W 008°26'0 0.0
2018-Feb-15 04:29N 54°38' W 008°26'0 0.0
2018-Feb-15 04:00N 54°38' W 008°26'0 0.0
2018-Feb-15 03:28N 54°38' W 008°26'0 0.0
2018-Feb-15 02:59N 54°38' W 008°26'0 0.0
2018-Feb-15 02:28N 54°38' W 008°26'0 0.0
2018-Feb-15 02:00N 54°38' W 008°26'0 0.0
2018-Feb-15 01:28N 54°38' W 008°26'0 0.0
2018-Feb-15 00:59N 54°38' W 008°26'0 0.0
2018-Feb-15 00:30N 54°38' W 008°26'0 0.0
2018-Feb-14 23:58N 54°38' W 008°26'0 0.0
2018-Feb-14 23:28N 54°38' W 008°26'0 0.0
2018-Feb-14 23:00N 54°38' W 008°26'0 0.0
2018-Feb-14 22:28N 54°38' W 008°26'0 0.0
2018-Feb-14 21:56N 54°38' W 008°26'0 0.0
2018-Feb-14 21:30N 54°38' W 008°26'0 0.0
2018-Feb-14 21:00N 54°38' W 008°26'0 0.0
2018-Feb-14 20:27N 54°38' W 008°26'0 0.0
2018-Feb-14 19:59N 54°38' W 008°26'0 0.0
2018-Feb-14 19:29N 54°38' W 008°26'0 0.0
2018-Feb-14 18:57N 54°38' W 008°26'0 0.0
2018-Feb-14 18:28N 54°38' W 008°26'0 0.0
2018-Feb-14 17:59N 54°38' W 008°26'0 0.0
2018-Feb-14 17:30N 54°38' W 008°26'0 0.0
2018-Feb-14 16:59N 54°38' W 008°26'0 0.0
2018-Feb-14 16:28N 54°38' W 008°26'0 0.0
2018-Feb-14 15:59N 54°38' W 008°26'0 0.0
2018-Feb-14 15:30N 54°38' W 008°26'0 0.0
2018-Feb-14 14:58N 54°38' W 008°26'0 0.0
2018-Feb-14 14:29N 54°38' W 008°26'0 0.0
2018-Feb-14 13:59N 54°38' W 008°26'0 0.0
2018-Feb-14 13:30N 54°38' W 008°26'0 0.0
2018-Feb-14 12:58N 54°38' W 008°26'0 0.0
2018-Feb-14 12:29N 54°38' W 008°26'0 0.0
2018-Feb-14 12:00N 54°38' W 008°26'0 0.0
2018-Feb-14 11:28N 54°38' W 008°26'0 0.0
2018-Feb-14 10:59N 54°38' W 008°26'0 0.0
2018-Feb-14 10:30N 54°38' W 008°26'0 0.0
2018-Feb-14 09:58N 54°38' W 008°26'0 0.0
2018-Feb-14 09:30N 54°38' W 008°26'0 0.0
2018-Feb-14 08:57N 54°38' W 008°26'0 0.0
2018-Feb-14 08:30N 54°38' W 008°26'0 0.0
2018-Feb-14 08:00N 54°38' W 008°26'0 0.0
2018-Feb-14 07:28N 54°38' W 008°26'0 0.0
2018-Feb-14 06:59N 54°38' W 008°26'0 0.0
2018-Feb-14 06:30N 54°38' W 008°26'0 0.0
2018-Feb-14 05:58N 54°38' W 008°26'0 0.0
2018-Feb-14 05:29N 54°38' W 008°26'0 0.0
2018-Feb-14 04:57N 54°38' W 008°26'0 0.0
2018-Feb-14 04:28N 54°38' W 008°26'0 0.0
2018-Feb-14 04:00N 54°38' W 008°26'0 0.0
2018-Feb-14 03:28N 54°38' W 008°26'0 0.0
2018-Feb-14 02:59N 54°38' W 008°26'0 0.0
2018-Feb-14 02:30N 54°38' W 008°26'0 0.0
2018-Feb-14 01:58N 54°38' W 008°26'0 0.0
2018-Feb-14 01:28N 54°38' W 008°26'0 0.0
2018-Feb-14 00:59N 54°38' W 008°26'0 0.0
2018-Feb-14 00:30N 54°38' W 008°26'0 0.0
2018-Feb-13 23:58N 54°38' W 008°26'0 0.0
2018-Feb-13 23:30N 54°38' W 008°26'0 0.0
2018-Feb-13 22:58N 54°38' W 008°26'0 0.0
2018-Feb-13 22:30N 54°38' W 008°26'0 0.0
2018-Feb-13 21:58N 54°38' W 008°26'0 0.0
2018-Feb-13 21:29N 54°38' W 008°26'0 0.0
2018-Feb-13 21:00N 54°38' W 008°26'0 0.0
2018-Feb-13 20:29N 54°38' W 008°26'0 0.0
2018-Feb-13 20:00N 54°38' W 008°26'0 0.0
2018-Feb-13 19:28N 54°38' W 008°26'0 0.0
2018-Feb-13 18:55N 54°38' W 008°26'0 0.0
2018-Feb-13 18:30N 54°38' W 008°26'0 0.0
2018-Feb-13 17:58N 54°38' W 008°26'0 0.0
2018-Feb-13 17:29N 54°38' W 008°26'0 0.0
2018-Feb-13 17:00N 54°38' W 008°26'0 0.0
2018-Feb-13 16:28N 54°38' W 008°26'0 0.0
2018-Feb-13 15:59N 54°38' W 008°26'0 0.0
2018-Feb-13 15:28N 54°38' W 008°26'0 0.0
2018-Feb-13 14:59N 54°38' W 008°26'0 0.0
2018-Feb-13 14:30N 54°38' W 008°26'0 0.0
2018-Feb-13 13:58N 54°38' W 008°26'0 0.0
2018-Feb-13 13:30N 54°38' W 008°26'0 0.0
2018-Feb-13 12:58N 54°38' W 008°26'0 0.0
2018-Feb-13 12:29N 54°38' W 008°26'0 0.0
2018-Feb-13 11:57N 54°38' W 008°26'0 0.0
2018-Feb-13 11:28N 54°38' W 008°26'0 0.0
2018-Feb-13 10:58N 54°38' W 008°26'0 0.0
2018-Feb-13 10:27N 54°38' W 008°26'0 0.3
2018-Feb-13 09:59N 54°38' W 008°26'0 0.0
2018-Feb-13 09:30N 54°38' W 008°26'0 0.0
2018-Feb-13 08:56N 54°38' W 008°26'0 0.1
2018-Feb-13 08:29N 54°38' W 008°26'0 0.2
2018-Feb-13 07:59N 54°38' W 008°26'0 0.0
2018-Feb-13 07:30N 54°38' W 008°26'0 0.0
2018-Feb-13 06:57N 54°38' W 008°26'0 0.0
2018-Feb-13 06:21N 54°38' W 008°26'0 0.0
2018-Feb-13 05:58N 54°38' W 008°26'0 0.0
2018-Feb-13 05:26N 54°38' W 008°26'0 0.0
2018-Feb-13 04:57N 54°38' W 008°26'0 0.0
2018-Feb-13 04:30N 54°38' W 008°26'0 0.0
2018-Feb-13 03:51N 54°38' W 008°26'0 0.0
2018-Feb-13 03:29N 54°38' W 008°26'0 0.0
2018-Feb-13 03:00N 54°38' W 008°26'0 0.0
2018-Feb-13 02:30N 54°38' W 008°26'0 0.0
2018-Feb-13 01:59N 54°38' W 008°26'0 0.0
2018-Feb-13 01:30N 54°38' W 008°26'0 0.0
2018-Feb-13 00:55N 54°38' W 008°26'0 0.0
2018-Feb-13 00:30N 54°38' W 008°26'0 0.0
2018-Feb-12 23:56N 54°38' W 008°26'0 0.0
2018-Feb-12 23:27N 54°38' W 008°26'0 0.0
2018-Feb-12 22:59N 54°38' W 008°26'0 0.0
2018-Feb-12 22:30N 54°38' W 008°26'0 0.0
2018-Feb-12 21:58N 54°38' W 008°26'0 0.0
2018-Feb-12 21:29N 54°38' W 008°26'0 0.0
2018-Feb-12 21:00N 54°38' W 008°26'0 0.0
2018-Feb-12 20:30N 54°38' W 008°26'0 0.0
2018-Feb-12 20:00N 54°38' W 008°26'0 0.0
2018-Feb-12 19:28N 54°38' W 008°26'0 0.0
2018-Feb-12 19:00N 54°38' W 008°26'0 0.0
2018-Feb-12 18:29N 54°38' W 008°26'0 0.0
2018-Feb-12 18:00N 54°38' W 008°26'0 0.0
2018-Feb-12 17:30N 54°38' W 008°26'0 0.0
2018-Feb-12 16:57N 54°38' W 008°26'0 0.0
2018-Feb-12 16:30N 54°38' W 008°26'0 0.0
2018-Feb-12 15:57N 54°38' W 008°26'0 0.0
2018-Feb-12 15:17N 54°38' W 008°26'0 0.0
2018-Feb-12 14:58N 54°38' W 008°26'0 0.0
2018-Feb-12 14:29N 54°38' W 008°26'0 0.0
2018-Feb-12 14:00N 54°38' W 008°26'0 0.0
2018-Feb-12 13:26N 54°38' W 008°26'0 0.0
2018-Feb-12 12:59N 54°38' W 008°26'0 0.0
2018-Feb-12 12:30N 54°38' W 008°26'0 0.0
2018-Feb-12 11:56N 54°38' W 008°26'0 0.0
2018-Feb-12 11:28N 54°38' W 008°26'0 0.0
2018-Feb-12 10:59N 54°38' W 008°26'0 0.0
2018-Feb-12 10:30N 54°38' W 008°26'0 0.0
2018-Feb-12 09:58N 54°38' W 008°26'0 0.0
2018-Feb-12 09:27N 54°38' W 008°26'0 0.0
2018-Feb-12 08:59N 54°38' W 008°26'0 0.0
2018-Feb-12 08:30N 54°38' W 008°26'0 0.0
2018-Feb-12 07:57N 54°38' W 008°26'0 0.0
2018-Feb-12 07:25N 54°38' W 008°26'0 0.0
2018-Feb-12 06:56N 54°38' W 008°26'0 0.0
2018-Feb-12 06:26N 54°38' W 008°26'0 0.0
2018-Feb-12 05:58N 54°38' W 008°26'0 0.0
2018-Feb-12 05:29N 54°38' W 008°26'0 0.0
2018-Feb-12 04:58N 54°38' W 008°26'0 0.0
2018-Feb-12 04:29N 54°38' W 008°26'0 0.0
2018-Feb-12 03:58N 54°38' W 008°26'0 0.0
2018-Feb-12 03:28N 54°38' W 008°26'0 0.0
2018-Feb-12 02:59N 54°38' W 008°26'0 0.0
2018-Feb-12 02:27N 54°38' W 008°26'0 0.0
2018-Feb-12 01:59N 54°38' W 008°26'0 0.0
2018-Feb-12 01:28N 54°38' W 008°26'0 0.0
2018-Feb-12 00:56N 54°38' W 008°26'0 0.0
2018-Feb-12 00:28N 54°38' W 008°26'0 0.0
2018-Feb-11 23:59N 54°38' W 008°26'0 0.0
2018-Feb-11 23:28N 54°38' W 008°26'0 0.0
2018-Feb-11 22:59N 54°38' W 008°26'0 0.0
2018-Feb-11 22:30N 54°38' W 008°26'0 0.0
2018-Feb-11 21:58N 54°38' W 008°26'0 0.0
2018-Feb-11 21:29N 54°38' W 008°26'0 0.0
2018-Feb-11 21:00N 54°38' W 008°26'0 0.0
2018-Feb-11 20:30N 54°38' W 008°26'0 0.0
2018-Feb-11 20:00N 54°38' W 008°26'0 0.0
2018-Feb-11 17:51N 54°38' W 008°26'0 0.0
2018-Feb-11 17:26N 54°38' W 008°26'0 0.0
2018-Feb-11 16:59N 54°38' W 008°26'0 0.0
2018-Feb-11 16:28N 54°38' W 008°26'0 0.0
2018-Feb-11 15:59N 54°38' W 008°26'0 0.0
2018-Feb-11 15:31N 54°38' W 008°26'0 0.0
2018-Feb-11 14:57N 54°38' W 008°26'0 0.0
2018-Feb-11 14:28N 54°38' W 008°26'0 0.0
2018-Feb-11 13:59N 54°38' W 008°26'0 0.0
2018-Feb-11 13:26N 54°38' W 008°26'0 0.0
2018-Feb-11 12:59N 54°38' W 008°26'0 0.0
2018-Feb-11 12:30N 54°38' W 008°26'0 0.0
2018-Feb-11 12:00N 54°38' W 008°26'0 0.0
2018-Feb-11 11:30N 54°38' W 008°26'0 0.0
2018-Feb-11 10:58N 54°38' W 008°26'0 0.0
2018-Feb-11 10:29N 54°38' W 008°26'0 0.0
2018-Feb-11 09:56N 54°38' W 008°26'0 0.0
2018-Feb-11 09:27N 54°38' W 008°26'0 0.0
2018-Feb-11 08:58N 54°38' W 008°26'0 0.0
2018-Feb-11 08:29N 54°38' W 008°26'0 0.0
2018-Feb-11 07:57N 54°38' W 008°26'0 0.0
2018-Feb-11 07:29N 54°38' W 008°26'0 0.0
2018-Feb-11 07:00N 54°38' W 008°26'0 0.0
2018-Feb-11 06:26N 54°38' W 008°26'0 0.0
2018-Feb-11 05:58N 54°38' W 008°26'0 0.0
2018-Feb-11 05:29N 54°38' W 008°26'0 0.0
2018-Feb-11 04:59N 54°38' W 008°26'0 0.0
2018-Feb-11 04:30N 54°38' W 008°26'0 0.0
2018-Feb-11 04:00N 54°38' W 008°26'0 0.0
2018-Feb-11 03:28N 54°38' W 008°26'0 0.0
2018-Feb-11 03:00N 54°38' W 008°26'0 0.0
2018-Feb-11 02:30N 54°38' W 008°26'0 0.0
2018-Feb-11 01:55N 54°38' W 008°26'0 0.0
2018-Feb-11 01:29N 54°38' W 008°26'0 0.0
2018-Feb-11 01:00N 54°38' W 008°26'0 0.0
2018-Feb-11 00:30N 54°38' W 008°26'0 0.0
2018-Feb-10 23:56N 54°38' W 008°26'0 0.0
2018-Feb-10 23:27N 54°38' W 008°26'0 0.0
2018-Feb-10 22:59N 54°38' W 008°26'0 0.0
2018-Feb-10 22:30N 54°38' W 008°26'0 0.0
2018-Feb-10 21:59N 54°38' W 008°26'0 0.0
2018-Feb-10 21:30N 54°38' W 008°26'0 0.0
2018-Feb-10 20:57N 54°38' W 008°26'0 0.0
2018-Feb-10 20:30N 54°38' W 008°26'0 0.0
2018-Feb-10 20:00N 54°38' W 008°26'0 0.0
2018-Feb-10 19:28N 54°38' W 008°26'0 0.0
2018-Feb-10 18:59N 54°38' W 008°26'0 0.0
2018-Feb-10 18:29N 54°38' W 008°26'0 0.0
2018-Feb-10 17:58N 54°38' W 008°26'0 0.0
2018-Feb-10 17:29N 54°38' W 008°26'0 0.0
2018-Feb-10 17:00N 54°38' W 008°26'0 0.0
2018-Feb-10 16:29N 54°38' W 008°26'0 0.0
2018-Feb-10 15:59N 54°38' W 008°26'0 0.0
2018-Feb-10 15:30N 54°38' W 008°26'0 0.0
2018-Feb-10 14:55N 54°38' W 008°26'0 0.0
2018-Feb-10 14:29N 54°38' W 008°26'0 0.0
2018-Feb-10 14:00N 54°38' W 008°26'0 0.0
2018-Feb-10 13:28N 54°38' W 008°26'0 0.0
2018-Feb-10 13:00N 54°38' W 008°26'0 0.0
2018-Feb-10 12:25N 54°38' W 008°26'0 0.0
2018-Feb-10 11:58N 54°38' W 008°26'0 0.0
2018-Feb-10 11:30N 54°38' W 008°26'0 0.0
2018-Feb-10 10:59N 54°38' W 008°26'0 0.0
2018-Feb-10 10:29N 54°38' W 008°26'0 0.0
2018-Feb-10 10:00N 54°38' W 008°26'0 0.0
2018-Feb-10 09:26N 54°38' W 008°26'0 0.0
2018-Feb-10 08:57N 54°38' W 008°26'0 0.0
2018-Feb-10 08:27N 54°38' W 008°26'0 0.0
2018-Feb-10 07:59N 54°38' W 008°26'0 0.0
2018-Feb-10 07:27N 54°38' W 008°26'0 0.0
2018-Feb-10 06:56N 54°38' W 008°26'0 0.0
2018-Feb-10 06:27N 54°38' W 008°26'  

Dump ship's entire track history